Aviation Digital Data Service (ADDS)

Output produced by METARs form (0529 UTC 19 March 2019)
found at http://www.aviationweather.gov/metar/data/
 
Forecast for: NFTF (FUA AMOTU TONGA , FJ)
Text: TAF NFTF 190507Z 1906/2006 16007KT 9999 FEW010 SCT017
Forecast period: 0600 UTC 19 March 2019 to 0600 UTC 20 March 2019
Forecast type: FROM: standard forecast or significant change
Winds: from the SSE (160 degrees) at 8 MPH (7 knots; 3.6 m/s)
Visibility: 6 or more miles 10+ km)
Ceiling: at least 12,000 feet AGL
Clouds: few clouds at 1000 feet AGL
scattered clouds at 1700 feet AGL
Weather: no significant weather forecast for this period